sensor_id;sensor_type;location;lat;lon;timestamp;P1;durP1;ratioP1;P2;durP2;ratioP2
59824;SDS011;45703;50.898;6.054;2022-07-10T00:01:01;5.30;;;1.30;;
59824;SDS011;45703;50.898;6.054;2022-07-10T00:03:26;5.05;;;1.45;;
59824;SDS011;45703;50.898;6.054;2022-07-10T00:05:52;6.55;;;1.40;;
59824;SDS011;45703;50.898;6.054;2022-07-10T00:08:17;7.38;;;1.35;;
59824;SDS011;45703;50.898;6.054;2022-07-10T00:10:42;5.53;;;1.13;;
59824;SDS011;45703;50.898;6.054;2022-07-10T00:13:08;5.55;;;1.10;;
59824;SDS011;45703;50.898;6.054;2022-07-10T00:15:33;7.90;;;1.58;;
59824;SDS011;45703;50.898;6.054;2022-07-10T00:17:58;8.93;;;1.73;;
59824;SDS011;45703;50.898;6.054;2022-07-10T00:20:24;6.45;;;1.10;;
59824;SDS011;45703;50.898;6.054;2022-07-10T00:22:50;5.95;;;1.20;;
59824;SDS011;45703;50.898;6.054;2022-07-10T00:25:15;4.82;;;1.05;;
59824;SDS011;45703;50.898;6.054;2022-07-10T00:27:41;6.18;;;1.30;;
59824;SDS011;45703;50.898;6.054;2022-07-10T00:30:07;5.28;;;1.40;;
59824;SDS011;45703;50.898;6.054;2022-07-10T00:32:33;5.55;;;1.00;;
59824;SDS011;45703;50.898;6.054;2022-07-10T00:34:58;6.40;;;1.73;;
59824;SDS011;45703;50.898;6.054;2022-07-10T00:37:24;5.97;;;1.30;;
59824;SDS011;45703;50.898;6.054;2022-07-10T00:39:49;5.93;;;1.17;;
59824;SDS011;45703;50.898;6.054;2022-07-10T00:42:15;7.45;;;1.55;;
59824;SDS011;45703;50.898;6.054;2022-07-10T00:44:41;11.73;;;1.60;;
59824;SDS011;45703;50.898;6.054;2022-07-10T00:47:08;6.22;;;1.33;;
59824;SDS011;45703;50.898;6.054;2022-07-10T00:49:35;6.75;;;1.40;;
59824;SDS011;45703;50.898;6.054;2022-07-10T00:52:03;6.85;;;1.45;;
59824;SDS011;45703;50.898;6.054;2022-07-10T00:54:31;6.55;;;1.50;;
59824;SDS011;45703;50.898;6.054;2022-07-10T00:56:57;5.38;;;1.20;;
59824;SDS011;45703;50.898;6.054;2022-07-10T00:59:23;7.35;;;1.70;;
59824;SDS011;45703;50.898;6.054;2022-07-10T01:01:49;4.82;;;1.17;;
59824;SDS011;45703;50.898;6.054;2022-07-10T01:04:15;6.03;;;1.50;;
59824;SDS011;45703;50.898;6.054;2022-07-10T01:06:41;5.28;;;1.35;;
59824;SDS011;45703;50.898;6.054;2022-07-10T01:09:07;8.40;;;1.55;;
59824;SDS011;45703;50.898;6.054;2022-07-10T01:11:33;6.75;;;1.70;;
59824;SDS011;45703;50.898;6.054;2022-07-10T01:14:00;6.63;;;2.03;;
59824;SDS011;45703;50.898;6.054;2022-07-10T01:16:26;8.95;;;1.83;;
59824;SDS011;45703;50.898;6.054;2022-07-10T01:18:51;7.68;;;1.60;;
59824;SDS011;45703;50.898;6.054;2022-07-10T01:21:49;7.13;;;1.58;;
59824;SDS011;45703;50.898;6.054;2022-07-10T01:24:08;6.63;;;1.90;;
59824;SDS011;45703;50.898;6.054;2022-07-10T01:26:35;8.30;;;1.90;;
59824;SDS011;45703;50.898;6.054;2022-07-10T01:29:05;6.43;;;1.85;;
59824;SDS011;45703;50.898;6.054;2022-07-10T01:31:32;6.22;;;1.85;;
59824;SDS011;45703;50.898;6.054;2022-07-10T01:33:59;6.28;;;1.75;;
59824;SDS011;45703;50.898;6.054;2022-07-10T01:36:25;6.95;;;1.92;;
59824;SDS011;45703;50.898;6.054;2022-07-10T01:38:53;5.60;;;1.80;;
59824;SDS011;45703;50.898;6.054;2022-07-10T01:41:19;7.22;;;1.92;;
59824;SDS011;45703;50.898;6.054;2022-07-10T01:43:45;7.63;;;2.00;;
59824;SDS011;45703;50.898;6.054;2022-07-10T01:46:13;7.63;;;2.13;;
59824;SDS011;45703;50.898;6.054;2022-07-10T01:48:38;9.15;;;2.20;;
59824;SDS011;45703;50.898;6.054;2022-07-10T01:51:04;6.40;;;2.20;;
59824;SDS011;45703;50.898;6.054;2022-07-10T01:53:31;6.43;;;1.90;;
59824;SDS011;45703;50.898;6.054;2022-07-10T01:55:56;6.38;;;1.45;;
59824;SDS011;45703;50.898;6.054;2022-07-10T01:58:22;6.57;;;1.88;;
59824;SDS011;45703;50.898;6.054;2022-07-10T02:00:48;6.53;;;1.98;;
59824;SDS011;45703;50.898;6.054;2022-07-10T02:03:13;6.28;;;2.03;;
59824;SDS011;45703;50.898;6.054;2022-07-10T02:05:57;7.57;;;1.80;;
59824;SDS011;45703;50.898;6.054;2022-07-10T02:08:22;6.70;;;1.98;;
59824;SDS011;45703;50.898;6.054;2022-07-10T02:10:48;6.82;;;1.90;;
59824;SDS011;45703;50.898;6.054;2022-07-10T02:13:14;6.53;;;2.08;;
59824;SDS011;45703;50.898;6.054;2022-07-10T02:15:42;7.93;;;2.03;;
59824;SDS011;45703;50.898;6.054;2022-07-10T02:18:07;6.45;;;1.95;;
59824;SDS011;45703;50.898;6.054;2022-07-10T02:20:33;5.47;;;1.63;;
59824;SDS011;45703;50.898;6.054;2022-07-10T02:23:00;7.75;;;1.70;;
59824;SDS011;45703;50.898;6.054;2022-07-10T02:25:25;6.40;;;2.10;;
59824;SDS011;45703;50.898;6.054;2022-07-10T02:27:51;5.90;;;2.00;;
59824;SDS011;45703;50.898;6.054;2022-07-10T02:30:16;8.00;;;1.90;;
59824;SDS011;45703;50.898;6.054;2022-07-10T02:32:41;8.05;;;2.08;;
59824;SDS011;45703;50.898;6.054;2022-07-10T02:35:07;6.20;;;1.73;;
59824;SDS011;45703;50.898;6.054;2022-07-10T02:37:32;6.43;;;1.80;;
59824;SDS011;45703;50.898;6.054;2022-07-10T02:39:58;6.55;;;2.03;;
59824;SDS011;45703;50.898;6.054;2022-07-10T02:42:23;5.70;;;1.60;;
59824;SDS011;45703;50.898;6.054;2022-07-10T02:44:48;7.32;;;2.10;;
59824;SDS011;45703;50.898;6.054;2022-07-10T02:47:14;8.10;;;2.20;;
59824;SDS011;45703;50.898;6.054;2022-07-10T02:49:39;9.55;;;2.13;;
59824;SDS011;45703;50.898;6.054;2022-07-10T02:52:04;6.15;;;1.80;;
59824;SDS011;45703;50.898;6.054;2022-07-10T02:54:30;7.60;;;2.05;;
59824;SDS011;45703;50.898;6.054;2022-07-10T02:56:55;8.38;;;2.10;;
59824;SDS011;45703;50.898;6.054;2022-07-10T02:59:20;5.63;;;1.52;;
59824;SDS011;45703;50.898;6.054;2022-07-10T03:01:46;7.13;;;1.52;;
59824;SDS011;45703;50.898;6.054;2022-07-10T03:04:11;11.40;;;2.30;;
59824;SDS011;45703;50.898;6.054;2022-07-10T03:06:36;6.80;;;1.80;;
59824;SDS011;45703;50.898;6.054;2022-07-10T03:09:02;6.03;;;1.85;;
59824;SDS011;45703;50.898;6.054;2022-07-10T03:11:27;9.70;;;2.67;;
59824;SDS011;45703;50.898;6.054;2022-07-10T03:13:53;8.10;;;2.38;;
59824;SDS011;45703;50.898;6.054;2022-07-10T03:16:18;6.45;;;1.90;;
59824;SDS011;45703;50.898;6.054;2022-07-10T03:18:43;8.27;;;1.95;;
59824;SDS011;45703;50.898;6.054;2022-07-10T03:21:10;7.95;;;2.33;;
59824;SDS011;45703;50.898;6.054;2022-07-10T03:23:36;7.05;;;2.15;;
59824;SDS011;45703;50.898;6.054;2022-07-10T03:26:01;6.22;;;2.05;;
59824;SDS011;45703;50.898;6.054;2022-07-10T03:28:26;6.90;;;1.80;;
59824;SDS011;45703;50.898;6.054;2022-07-10T03:30:52;6.45;;;2.00;;
59824;SDS011;45703;50.898;6.054;2022-07-10T03:33:17;6.75;;;1.90;;
59824;SDS011;45703;50.898;6.054;2022-07-10T03:35:43;7.40;;;2.17;;
59824;SDS011;45703;50.898;6.054;2022-07-10T03:38:08;8.05;;;2.10;;
59824;SDS011;45703;50.898;6.054;2022-07-10T03:40:33;7.78;;;2.03;;
59824;SDS011;45703;50.898;6.054;2022-07-10T03:42:59;7.05;;;2.20;;
59824;SDS011;45703;50.898;6.054;2022-07-10T03:45:24;8.52;;;2.05;;
59824;SDS011;45703;50.898;6.054;2022-07-10T03:47:50;7.07;;;2.10;;
59824;SDS011;45703;50.898;6.054;2022-07-10T03:50:15;6.28;;;1.75;;
59824;SDS011;45703;50.898;6.054;2022-07-10T03:52:41;8.45;;;2.00;;
59824;SDS011;45703;50.898;6.054;2022-07-10T03:55:06;6.75;;;2.03;;
59824;SDS011;45703;50.898;6.054;2022-07-10T03:57:32;6.93;;;1.90;;
59824;SDS011;45703;50.898;6.054;2022-07-10T04:00:15;7.03;;;1.90;;
59824;SDS011;45703;50.898;6.054;2022-07-10T04:02:40;8.13;;;2.22;;
59824;SDS011;45703;50.898;6.054;2022-07-10T04:05:06;8.45;;;2.20;;
59824;SDS011;45703;50.898;6.054;2022-07-10T04:07:33;7.28;;;1.85;;
59824;SDS011;45703;50.898;6.054;2022-07-10T04:09:59;7.57;;;1.92;;
59824;SDS011;45703;50.898;6.054;2022-07-10T04:12:25;6.50;;;1.98;;
59824;SDS011;45703;50.898;6.054;2022-07-10T04:14:50;5.45;;;1.90;;
59824;SDS011;45703;50.898;6.054;2022-07-10T04:17:16;7.20;;;2.00;;
59824;SDS011;45703;50.898;6.054;2022-07-10T04:19:42;5.68;;;1.88;;
59824;SDS011;45703;50.898;6.054;2022-07-10T04:22:08;6.68;;;1.90;;
59824;SDS011;45703;50.898;6.054;2022-07-10T04:24:33;6.75;;;1.90;;
59824;SDS011;45703;50.898;6.054;2022-07-10T04:26:58;4.82;;;1.50;;
59824;SDS011;45703;50.898;6.054;2022-07-10T04:29:24;9.10;;;2.40;;
59824;SDS011;45703;50.898;6.054;2022-07-10T04:31:49;6.22;;;1.95;;
59824;SDS011;45703;50.898;6.054;2022-07-10T04:34:14;6.47;;;1.90;;
59824;SDS011;45703;50.898;6.054;2022-07-10T04:36:40;8.35;;;2.00;;
59824;SDS011;45703;50.898;6.054;2022-07-10T04:39:05;8.18;;;2.30;;
59824;SDS011;45703;50.898;6.054;2022-07-10T04:41:30;6.57;;;1.90;;
59824;SDS011;45703;50.898;6.054;2022-07-10T04:43:56;7.22;;;2.10;;
59824;SDS011;45703;50.898;6.054;2022-07-10T04:46:21;9.80;;;2.50;;
59824;SDS011;45703;50.898;6.054;2022-07-10T04:48:46;8.07;;;2.55;;
59824;SDS011;45703;50.898;6.054;2022-07-10T04:51:11;6.88;;;2.05;;
59824;SDS011;45703;50.898;6.054;2022-07-10T04:53:37;7.80;;;2.00;;
59824;SDS011;45703;50.898;6.054;2022-07-10T04:56:02;7.53;;;1.90;;
59824;SDS011;45703;50.898;6.054;2022-07-10T04:58:28;6.07;;;1.70;;
59824;SDS011;45703;50.898;6.054;2022-07-10T05:00:53;9.45;;;2.10;;
59824;SDS011;45703;50.898;6.054;2022-07-10T05:03:19;6.53;;;1.75;;
59824;SDS011;45703;50.898;6.054;2022-07-10T05:05:44;6.57;;;1.92;;
59824;SDS011;45703;50.898;6.054;2022-07-10T05:08:09;6.15;;;1.83;;
59824;SDS011;45703;50.898;6.054;2022-07-10T05:10:35;7.35;;;2.10;;
59824;SDS011;45703;50.898;6.054;2022-07-10T05:13:00;7.53;;;1.95;;
59824;SDS011;45703;50.898;6.054;2022-07-10T05:15:25;8.20;;;1.60;;
59824;SDS011;45703;50.898;6.054;2022-07-10T05:17:51;7.07;;;2.08;;
59824;SDS011;45703;50.898;6.054;2022-07-10T05:20:16;9.77;;;2.45;;
59824;SDS011;45703;50.898;6.054;2022-07-10T05:22:42;7.35;;;2.00;;
59824;SDS011;45703;50.898;6.054;2022-07-10T05:25:07;8.45;;;2.33;;
59824;SDS011;45703;50.898;6.054;2022-07-10T05:27:32;8.00;;;2.10;;
59824;SDS011;45703;50.898;6.054;2022-07-10T05:29:58;6.75;;;2.15;;
59824;SDS011;45703;50.898;6.054;2022-07-10T05:32:23;10.75;;;2.10;;
59824;SDS011;45703;50.898;6.054;2022-07-10T05:34:50;7.43;;;2.15;;
59824;SDS011;45703;50.898;6.054;2022-07-10T05:37:16;5.30;;;1.77;;
59824;SDS011;45703;50.898;6.054;2022-07-10T05:39:42;5.03;;;1.75;;
59824;SDS011;45703;50.898;6.054;2022-07-10T05:42:08;7.30;;;2.00;;
59824;SDS011;45703;50.898;6.054;2022-07-10T05:44:33;9.32;;;2.20;;
59824;SDS011;45703;50.898;6.054;2022-07-10T05:46:59;9.50;;;2.17;;
59824;SDS011;45703;50.898;6.054;2022-07-10T05:49:24;6.88;;;2.00;;
59824;SDS011;45703;50.898;6.054;2022-07-10T05:51:50;6.45;;;2.03;;
59824;SDS011;45703;50.898;6.054;2022-07-10T05:54:15;7.93;;;2.10;;
59824;SDS011;45703;50.898;6.054;2022-07-10T05:56:40;7.00;;;1.92;;
59824;SDS011;45703;50.898;6.054;2022-07-10T05:59:06;6.88;;;1.90;;
59824;SDS011;45703;50.898;6.054;2022-07-10T06:01:31;7.40;;;1.80;;
59824;SDS011;45703;50.898;6.054;2022-07-10T06:03:57;6.68;;;1.67;;
59824;SDS011;45703;50.898;6.054;2022-07-10T06:06:22;5.65;;;1.75;;
59824;SDS011;45703;50.898;6.054;2022-07-10T06:08:47;6.70;;;2.20;;
59824;SDS011;45703;50.898;6.054;2022-07-10T06:11:13;6.43;;;1.63;;
59824;SDS011;45703;50.898;6.054;2022-07-10T06:13:38;6.45;;;1.70;;
59824;SDS011;45703;50.898;6.054;2022-07-10T06:16:04;6.35;;;1.75;;
59824;SDS011;45703;50.898;6.054;2022-07-10T06:18:30;7.30;;;1.80;;
59824;SDS011;45703;50.898;6.054;2022-07-10T06:20:55;6.85;;;1.70;;
59824;SDS011;45703;50.898;6.054;2022-07-10T06:23:21;6.30;;;1.33;;
59824;SDS011;45703;50.898;6.054;2022-07-10T06:25:46;9.60;;;2.10;;
59824;SDS011;45703;50.898;6.054;2022-07-10T06:28:13;6.93;;;1.65;;
59824;SDS011;45703;50.898;6.054;2022-07-10T06:30:39;4.90;;;1.55;;
59824;SDS011;45703;50.898;6.054;2022-07-10T06:33:04;6.65;;;1.75;;
59824;SDS011;45703;50.898;6.054;2022-07-10T06:35:29;6.40;;;1.67;;
59824;SDS011;45703;50.898;6.054;2022-07-10T06:37:55;6.93;;;1.60;;
59824;SDS011;45703;50.898;6.054;2022-07-10T06:40:20;5.93;;;1.65;;
59824;SDS011;45703;50.898;6.054;2022-07-10T06:42:45;7.13;;;1.90;;
59824;SDS011;45703;50.898;6.054;2022-07-10T06:45:11;8.98;;;2.22;;
59824;SDS011;45703;50.898;6.054;2022-07-10T06:47:36;6.25;;;1.60;;
59824;SDS011;45703;50.898;6.054;2022-07-10T06:50:20;6.38;;;1.75;;
59824;SDS011;45703;50.898;6.054;2022-07-10T06:52:47;5.90;;;1.50;;
59824;SDS011;45703;50.898;6.054;2022-07-10T06:55:13;6.95;;;1.63;;
59824;SDS011;45703;50.898;6.054;2022-07-10T06:57:39;7.28;;;1.77;;
59824;SDS011;45703;50.898;6.054;2022-07-10T07:00:05;6.90;;;2.00;;
59824;SDS011;45703;50.898;6.054;2022-07-10T07:02:31;8.32;;;2.40;;
59824;SDS011;45703;50.898;6.054;2022-07-10T07:04:56;6.35;;;1.88;;
59824;SDS011;45703;50.898;6.054;2022-07-10T07:07:22;6.15;;;1.50;;
59824;SDS011;45703;50.898;6.054;2022-07-10T07:09:47;8.00;;;2.40;;
59824;SDS011;45703;50.898;6.054;2022-07-10T07:12:15;8.38;;;1.92;;
59824;SDS011;45703;50.898;6.054;2022-07-10T07:14:41;8.75;;;1.90;;
59824;SDS011;45703;50.898;6.054;2022-07-10T07:17:06;9.40;;;2.00;;
59824;SDS011;45703;50.898;6.054;2022-07-10T07:19:34;7.93;;;2.15;;
59824;SDS011;45703;50.898;6.054;2022-07-10T07:22:21;8.63;;;2.42;;
59824;SDS011;45703;50.898;6.054;2022-07-10T07:25:07;8.32;;;1.73;;
59824;SDS011;45703;50.898;6.054;2022-07-10T07:27:34;8.90;;;1.58;;
59824;SDS011;45703;50.898;6.054;2022-07-10T07:30:18;7.93;;;1.90;;
59824;SDS011;45703;50.898;6.054;2022-07-10T07:32:44;7.28;;;1.80;;
59824;SDS011;45703;50.898;6.054;2022-07-10T07:35:11;6.10;;;1.83;;
59824;SDS011;45703;50.898;6.054;2022-07-10T07:37:38;6.60;;;1.60;;
59824;SDS011;45703;50.898;6.054;2022-07-10T07:40:05;6.78;;;1.50;;
59824;SDS011;45703;50.898;6.054;2022-07-10T07:42:32;6.45;;;1.73;;
59824;SDS011;45703;50.898;6.054;2022-07-10T07:44:57;6.03;;;1.70;;
59824;SDS011;45703;50.898;6.054;2022-07-10T07:47:23;7.00;;;1.63;;
59824;SDS011;45703;50.898;6.054;2022-07-10T07:49:48;7.75;;;1.85;;
59824;SDS011;45703;50.898;6.054;2022-07-10T07:52:13;6.97;;;1.70;;
59824;SDS011;45703;50.898;6.054;2022-07-10T07:54:39;6.00;;;1.50;;
59824;SDS011;45703;50.898;6.054;2022-07-10T07:57:05;5.10;;;1.15;;
59824;SDS011;45703;50.898;6.054;2022-07-10T07:59:32;6.90;;;1.58;;
59824;SDS011;45703;50.898;6.054;2022-07-10T08:01:57;6.38;;;1.42;;
59824;SDS011;45703;50.898;6.054;2022-07-10T08:04:23;4.70;;;1.45;;
59824;SDS011;45703;50.898;6.054;2022-07-10T08:06:48;5.90;;;1.45;;
59824;SDS011;45703;50.898;6.054;2022-07-10T08:09:17;7.28;;;1.80;;
59824;SDS011;45703;50.898;6.054;2022-07-10T08:11:45;6.25;;;1.50;;
59824;SDS011;45703;50.898;6.054;2022-07-10T08:14:11;6.57;;;1.58;;
59824;SDS011;45703;50.898;6.054;2022-07-10T08:16:37;8.25;;;1.85;;
59824;SDS011;45703;50.898;6.054;2022-07-10T08:19:02;6.78;;;1.90;;
59824;SDS011;45703;50.898;6.054;2022-07-10T08:21:27;10.25;;;1.80;;
59824;SDS011;45703;50.898;6.054;2022-07-10T08:23:53;5.45;;;1.45;;
59824;SDS011;45703;50.898;6.054;2022-07-10T08:26:18;6.18;;;1.40;;
59824;SDS011;45703;50.898;6.054;2022-07-10T08:28:44;6.47;;;1.50;;
59824;SDS011;45703;50.898;6.054;2022-07-10T08:31:10;6.90;;;1.38;;
59824;SDS011;45703;50.898;6.054;2022-07-10T08:33:35;6.57;;;1.50;;
59824;SDS011;45703;50.898;6.054;2022-07-10T08:36:00;6.15;;;1.30;;
59824;SDS011;45703;50.898;6.054;2022-07-10T08:38:26;8.25;;;1.40;;
59824;SDS011;45703;50.898;6.054;2022-07-10T08:40:51;6.60;;;1.58;;
59824;SDS011;45703;50.898;6.054;2022-07-10T08:45:47;6.38;;;1.50;;
59824;SDS011;45703;50.898;6.054;2022-07-10T08:48:14;6.25;;;1.50;;
59824;SDS011;45703;50.898;6.054;2022-07-10T08:50:45;5.60;;;1.23;;
59824;SDS011;45703;50.898;6.054;2022-07-10T08:53:13;6.10;;;1.77;;
59824;SDS011;45703;50.898;6.054;2022-07-10T08:55:45;5.57;;;1.40;;
59824;SDS011;45703;50.898;6.054;2022-07-10T08:58:10;5.82;;;1.45;;
59824;SDS011;45703;50.898;6.054;2022-07-10T09:00:37;8.23;;;1.50;;
59824;SDS011;45703;50.898;6.054;2022-07-10T09:03:03;5.70;;;1.52;;
59824;SDS011;45703;50.898;6.054;2022-07-10T09:05:28;7.45;;;1.35;;
59824;SDS011;45703;50.898;6.054;2022-07-10T09:07:54;5.05;;;1.23;;
59824;SDS011;45703;50.898;6.054;2022-07-10T09:10:20;7.35;;;1.30;;
59824;SDS011;45703;50.898;6.054;2022-07-10T09:12:53;8.15;;;1.50;;
59824;SDS011;45703;50.898;6.054;2022-07-10T09:15:23;5.13;;;1.40;;
59824;SDS011;45703;50.898;6.054;2022-07-10T09:17:59;8.63;;;1.40;;
59824;SDS011;45703;50.898;6.054;2022-07-10T09:20:34;7.45;;;1.52;;
59824;SDS011;45703;50.898;6.054;2022-07-10T09:25:44;5.97;;;1.60;;
59824;SDS011;45703;50.898;6.054;2022-07-10T09:28:10;9.27;;;1.58;;
59824;SDS011;45703;50.898;6.054;2022-07-10T09:30:40;5.60;;;1.70;;
59824;SDS011;45703;50.898;6.054;2022-07-10T09:33:19;6.25;;;1.77;;
59824;SDS011;45703;50.898;6.054;2022-07-10T09:41:11;6.40;;;1.58;;
59824;SDS011;45703;50.898;6.054;2022-07-10T09:43:46;7.20;;;1.40;;
59824;SDS011;45703;50.898;6.054;2022-07-10T09:46:12;7.38;;;1.50;;
59824;SDS011;45703;50.898;6.054;2022-07-10T09:48:37;5.95;;;1.50;;
59824;SDS011;45703;50.898;6.054;2022-07-10T09:51:04;5.88;;;1.60;;
59824;SDS011;45703;50.898;6.054;2022-07-10T09:53:34;5.05;;;1.35;;
59824;SDS011;45703;50.898;6.054;2022-07-10T09:56:04;5.78;;;1.50;;
59824;SDS011;45703;50.898;6.054;2022-07-10T09:58:35;8.13;;;1.83;;
59824;SDS011;45703;50.898;6.054;2022-07-10T10:01:02;7.68;;;1.75;;
59824;SDS011;45703;50.898;6.054;2022-07-10T10:03:31;7.28;;;1.58;;
59824;SDS011;45703;50.898;6.054;2022-07-10T10:06:01;7.82;;;1.70;;
59824;SDS011;45703;50.898;6.054;2022-07-10T10:08:32;8.02;;;1.67;;
59824;SDS011;45703;50.898;6.054;2022-07-10T10:11:21;8.05;;;1.58;;
59824;SDS011;45703;50.898;6.054;2022-07-10T10:13:50;8.23;;;1.77;;
59824;SDS011;45703;50.898;6.054;2022-07-10T10:16:17;6.82;;;1.75;;
59824;SDS011;45703;50.898;6.054;2022-07-10T10:18:44;5.50;;;1.40;;
59824;SDS011;45703;50.898;6.054;2022-07-10T10:21:30;9.63;;;1.55;;
59824;SDS011;45703;50.898;6.054;2022-07-10T10:23:56;5.60;;;1.70;;
59824;SDS011;45703;50.898;6.054;2022-07-10T10:26:22;11.52;;;1.70;;
59824;SDS011;45703;50.898;6.054;2022-07-10T10:28:48;6.80;;;1.92;;
59824;SDS011;45703;50.898;6.054;2022-07-10T10:31:22;6.40;;;2.00;;
59824;SDS011;45703;50.898;6.054;2022-07-10T10:33:53;6.90;;;2.05;;
59824;SDS011;45703;50.898;6.054;2022-07-10T10:39:09;6.72;;;2.25;;
59824;SDS011;45703;50.898;6.054;2022-07-10T10:49:16;7.47;;;2.30;;
59824;SDS011;45703;50.898;6.054;2022-07-10T10:52:08;7.18;;;2.63;;
59824;SDS011;45703;50.898;6.054;2022-07-10T11:00:00;6.38;;;1.80;;
59824;SDS011;45703;50.898;6.054;2022-07-10T11:02:26;6.97;;;2.00;;
59824;SDS011;45703;50.898;6.054;2022-07-10T11:07:52;9.35;;;2.17;;
59824;SDS011;45703;50.898;6.054;2022-07-10T11:10:36;8.48;;;2.40;;
59824;SDS011;45703;50.898;6.054;2022-07-10T11:13:12;6.70;;;2.10;;
59824;SDS011;45703;50.898;6.054;2022-07-10T11:15:39;5.72;;;2.10;;
59824;SDS011;45703;50.898;6.054;2022-07-10T11:18:13;7.25;;;2.40;;
59824;SDS011;45703;50.898;6.054;2022-07-10T11:20:44;7.32;;;2.55;;
59824;SDS011;45703;50.898;6.054;2022-07-10T11:25:52;8.55;;;2.60;;
59824;SDS011;45703;50.898;6.054;2022-07-10T11:31:08;7.22;;;2.08;;
59824;SDS011;45703;50.898;6.054;2022-07-10T11:33:38;6.10;;;2.13;;
59824;SDS011;45703;50.898;6.054;2022-07-10T11:36:09;7.93;;;2.58;;
59824;SDS011;45703;50.898;6.054;2022-07-10T11:38:37;8.63;;;2.50;;
59824;SDS011;45703;50.898;6.054;2022-07-10T11:41:03;6.90;;;2.60;;
59824;SDS011;45703;50.898;6.054;2022-07-10T11:43:29;6.35;;;2.75;;
59824;SDS011;45703;50.898;6.054;2022-07-10T11:45:54;6.72;;;2.25;;
59824;SDS011;45703;50.898;6.054;2022-07-10T11:48:24;6.72;;;2.28;;
59824;SDS011;45703;50.898;6.054;2022-07-10T11:50:49;6.07;;;2.00;;
59824;SDS011;45703;50.898;6.054;2022-07-10T11:53:25;5.80;;;2.08;;
59824;SDS011;45703;50.898;6.054;2022-07-10T11:55:51;6.70;;;2.30;;
59824;SDS011;45703;50.898;6.054;2022-07-10T11:58:17;5.93;;;1.92;;
59824;SDS011;45703;50.898;6.054;2022-07-10T12:00:44;5.78;;;2.10;;
59824;SDS011;45703;50.898;6.054;2022-07-10T12:03:22;6.50;;;2.22;;
59824;SDS011;45703;50.898;6.054;2022-07-10T12:05:48;7.25;;;2.10;;
59824;SDS011;45703;50.898;6.054;2022-07-10T12:08:15;7.68;;;2.30;;
59824;SDS011;45703;50.898;6.054;2022-07-10T12:10:41;7.00;;;2.20;;
59824;SDS011;45703;50.898;6.054;2022-07-10T12:13:13;6.28;;;2.33;;
59824;SDS011;45703;50.898;6.054;2022-07-10T12:18:08;6.15;;;1.90;;
59824;SDS011;45703;50.898;6.054;2022-07-10T12:20:34;7.30;;;1.80;;
59824;SDS011;45703;50.898;6.054;2022-07-10T12:23:02;6.22;;;1.85;;
59824;SDS011;45703;50.898;6.054;2022-07-10T12:25:28;8.63;;;2.08;;
59824;SDS011;45703;50.898;6.054;2022-07-10T12:27:57;8.52;;;2.20;;
59824;SDS011;45703;50.898;6.054;2022-07-10T12:30:45;6.90;;;2.05;;
59824;SDS011;45703;50.898;6.054;2022-07-10T12:33:14;7.32;;;2.42;;
59824;SDS011;45703;50.898;6.054;2022-07-10T12:38:18;5.90;;;1.80;;
59824;SDS011;45703;50.898;6.054;2022-07-10T12:40:45;7.30;;;2.10;;
59824;SDS011;45703;50.898;6.054;2022-07-10T12:43:10;6.90;;;2.00;;
59824;SDS011;45703;50.898;6.054;2022-07-10T12:45:36;6.13;;;1.90;;
59824;SDS011;45703;50.898;6.054;2022-07-10T12:48:03;6.70;;;2.10;;
59824;SDS011;45703;50.898;6.054;2022-07-10T12:50:30;5.63;;;1.90;;
59824;SDS011;45703;50.898;6.054;2022-07-10T12:53:09;5.68;;;1.73;;
59824;SDS011;45703;50.898;6.054;2022-07-10T12:55:37;5.90;;;2.13;;
59824;SDS011;45703;50.898;6.054;2022-07-10T12:58:05;8.18;;;2.25;;
59824;SDS011;45703;50.898;6.054;2022-07-10T13:00:34;6.85;;;1.83;;
59824;SDS011;45703;50.898;6.054;2022-07-10T13:03:01;8.45;;;2.20;;
59824;SDS011;45703;50.898;6.054;2022-07-10T13:05:30;7.15;;;2.03;;
59824;SDS011;45703;50.898;6.054;2022-07-10T13:10:57;6.82;;;1.77;;
59824;SDS011;45703;50.898;6.054;2022-07-10T13:13:26;6.45;;;2.00;;
59824;SDS011;45703;50.898;6.054;2022-07-10T13:15:51;8.60;;;2.00;;
59824;SDS011;45703;50.898;6.054;2022-07-10T13:18:22;6.50;;;1.80;;
59824;SDS011;45703;50.898;6.054;2022-07-10T13:20:50;6.25;;;2.03;;
59824;SDS011;45703;50.898;6.054;2022-07-10T13:23:17;6.55;;;1.90;;
59824;SDS011;45703;50.898;6.054;2022-07-10T13:25:46;5.70;;;1.70;;
59824;SDS011;45703;50.898;6.054;2022-07-10T13:28:14;6.05;;;1.95;;
59824;SDS011;45703;50.898;6.054;2022-07-10T13:30:41;6.80;;;2.28;;
59824;SDS011;45703;50.898;6.054;2022-07-10T13:33:07;7.72;;;2.08;;
59824;SDS011;45703;50.898;6.054;2022-07-10T13:35:32;7.50;;;2.10;;
59824;SDS011;45703;50.898;6.054;2022-07-10T13:37:58;6.90;;;2.40;;
59824;SDS011;45703;50.898;6.054;2022-07-10T13:40:26;6.50;;;2.33;;
59824;SDS011;45703;50.898;6.054;2022-07-10T13:42:52;5.82;;;1.95;;
59824;SDS011;45703;50.898;6.054;2022-07-10T13:45:18;7.28;;;2.38;;
59824;SDS011;45703;50.898;6.054;2022-07-10T13:47:44;5.93;;;1.83;;
59824;SDS011;45703;50.898;6.054;2022-07-10T13:50:09;7.47;;;2.35;;
59824;SDS011;45703;50.898;6.054;2022-07-10T13:52:34;7.30;;;2.17;;
59824;SDS011;45703;50.898;6.054;2022-07-10T13:55:00;6.85;;;2.17;;
59824;SDS011;45703;50.898;6.054;2022-07-10T13:57:26;7.32;;;2.10;;
59824;SDS011;45703;50.898;6.054;2022-07-10T13:59:52;5.80;;;2.30;;
59824;SDS011;45703;50.898;6.054;2022-07-10T14:02:18;7.32;;;2.22;;
59824;SDS011;45703;50.898;6.054;2022-07-10T14:04:45;6.60;;;2.40;;
59824;SDS011;45703;50.898;6.054;2022-07-10T14:07:10;7.50;;;2.22;;
59824;SDS011;45703;50.898;6.054;2022-07-10T14:09:35;6.55;;;2.20;;
59824;SDS011;45703;50.898;6.054;2022-07-10T14:12:00;6.72;;;2.10;;
59824;SDS011;45703;50.898;6.054;2022-07-10T14:14:26;5.65;;;2.45;;
59824;SDS011;45703;50.898;6.054;2022-07-10T14:16:51;6.32;;;2.13;;
59824;SDS011;45703;50.898;6.054;2022-07-10T14:19:17;9.18;;;2.80;;
59824;SDS011;45703;50.898;6.054;2022-07-10T14:21:42;6.57;;;2.10;;
59824;SDS011;45703;50.898;6.054;2022-07-10T14:24:07;7.63;;;2.22;;
59824;SDS011;45703;50.898;6.054;2022-07-10T14:26:33;6.90;;;2.03;;
59824;SDS011;45703;50.898;6.054;2022-07-10T14:29:00;5.93;;;1.90;;
59824;SDS011;45703;50.898;6.054;2022-07-10T14:31:27;6.78;;;2.05;;
59824;SDS011;45703;50.898;6.054;2022-07-10T14:33:53;5.93;;;1.77;;
59824;SDS011;45703;50.898;6.054;2022-07-10T14:36:18;9.38;;;1.88;;
59824;SDS011;45703;50.898;6.054;2022-07-10T14:38:43;6.70;;;1.85;;
59824;SDS011;45703;50.898;6.054;2022-07-10T14:41:10;7.18;;;1.80;;
59824;SDS011;45703;50.898;6.054;2022-07-10T14:43:35;5.78;;;2.13;;
59824;SDS011;45703;50.898;6.054;2022-07-10T14:46:01;5.25;;;1.77;;
59824;SDS011;45703;50.898;6.054;2022-07-10T14:48:31;7.07;;;1.85;;
59824;SDS011;45703;50.898;6.054;2022-07-10T14:50:58;6.22;;;1.98;;
59824;SDS011;45703;50.898;6.054;2022-07-10T14:53:23;6.45;;;2.00;;
59824;SDS011;45703;50.898;6.054;2022-07-10T14:55:49;6.85;;;1.92;;
59824;SDS011;45703;50.898;6.054;2022-07-10T14:58:14;5.75;;;1.95;;
59824;SDS011;45703;50.898;6.054;2022-07-10T15:00:40;6.38;;;2.42;;
59824;SDS011;45703;50.898;6.054;2022-07-10T15:03:05;6.85;;;2.28;;
59824;SDS011;45703;50.898;6.054;2022-07-10T15:05:31;7.80;;;2.20;;
59824;SDS011;45703;50.898;6.054;2022-07-10T15:07:58;7.38;;;2.30;;
59824;SDS011;45703;50.898;6.054;2022-07-10T15:10:24;7.28;;;2.00;;
59824;SDS011;45703;50.898;6.054;2022-07-10T15:12:49;6.53;;;2.00;;
59824;SDS011;45703;50.898;6.054;2022-07-10T15:15:14;5.03;;;1.80;;
59824;SDS011;45703;50.898;6.054;2022-07-10T15:17:40;5.38;;;1.58;;
59824;SDS011;45703;50.898;6.054;2022-07-10T15:20:05;6.45;;;2.13;;
59824;SDS011;45703;50.898;6.054;2022-07-10T15:22:32;7.35;;;1.90;;
59824;SDS011;45703;50.898;6.054;2022-07-10T15:24:57;5.53;;;1.70;;
59824;SDS011;45703;50.898;6.054;2022-07-10T15:27:23;5.97;;;1.90;;
59824;SDS011;45703;50.898;6.054;2022-07-10T15:29:48;5.88;;;1.85;;